Time,TemperatureF,DewpointF,PressureIn,WindDirection,WindDirectionDegrees,WindSpeedMPH,WindSpeedGustMPH,Humidity,HourlyPrecipIn,Conditions,Clouds,dailyrainin,SoftwareType,DateUTC
2013-04-03 00:10:00,26.4,15.0,30.39,North,9,0.0,0.0,62,0.00,,,0.00,weatherlink.com 1.10,2013-04-03 04:10:00,
2013-04-03 00:25:00,25.9,14.0,30.40,North,9,0.0,0.0,61,0.00,,,0.00,weatherlink.com 1.10,2013-04-03 04:25:00,
2013-04-03 00:40:00,25.1,14.0,30.40,North,9,0.0,0.0,63,0.00,,,0.00,weatherlink.com 1.10,2013-04-03 04:40:00,
2013-04-03 00:55:00,24.7,14.0,30.40,North,9,0.0,0.0,65,0.00,,,0.00,weatherlink.com 1.10,2013-04-03 04:55:00,
2013-04-03 01:10:00,24.9,15.0,30.40,North,9,0.0,0.0,67,0.00,,,0.00,weatherlink.com 1.10,2013-04-03 05:10:00,
2013-04-03 01:25:00,25.0,16.0,30.40,North,9,0.0,0.0,68,0.00,,,0.00,weatherlink.com 1.10,2013-04-03 05:25:00,
2013-04-03 01:40:00,24.3,16.0,30.40,North,9,0.0,0.0,70,0.00,,,0.00,weatherlink.com 1.10,2013-04-03 05:40:00,
2013-04-03 01:55:00,24.0,16.0,30.40,North,9,0.0,0.0,72,0.00,,,0.00,weatherlink.com 1.10,2013-04-03 05:55:00,
2013-04-03 02:10:00,23.8,16.0,30.41,North,9,0.0,0.0,72,0.00,,,0.00,weatherlink.com 1.10,2013-04-03 06:10:00,
2013-04-03 02:25:00,23.2,16.0,30.41,North,9,0.0,0.0,74,0.00,,,0.00,weatherlink.com 1.10,2013-04-03 06:25:00,
2013-04-03 02:40:00,22.8,16.0,30.41,North,9,0.0,0.0,76,0.00,,,0.00,weatherlink.com 1.10,2013-04-03 06:40:00,
2013-04-03 02:56:00,22.9,17.0,30.42,North,8,0.0,0.0,78,0.00,,,0.00,weatherlink.com 1.10,2013-04-03 06:56:00,
2013-04-03 03:11:00,22.8,16.0,30.41,North,9,0.0,0.0,76,0.00,,,0.00,weatherlink.com 1.10,2013-04-03 07:11:00,
2013-04-03 03:26:00,22.4,16.0,30.41,North,9,0.0,0.0,75,0.00,,,0.00,weatherlink.com 1.10,2013-04-03 07:26:00,
2013-04-03 03:41:00,21.8,15.0,30.41,North,9,0.0,0.0,76,0.00,,,0.00,weatherlink.com 1.10,2013-04-03 07:41:00,
2013-04-03 03:56:00,21.2,15.0,30.41,North,9,0.0,0.0,77,0.00,,,0.00,weatherlink.com 1.10,2013-04-03 07:56:00,
2013-04-03 04:56:00,23.1,16.0,30.44,West,274,0.0,0.0,73,0.00,,,0.00,weatherlink.com 1.10,2013-04-03 08:56:00,
2013-04-03 05:11:00,23.2,16.0,30.43,West,273,0.0,0.0,73,0.00,,,0.00,weatherlink.com 1.10,2013-04-03 09:11:00,
2013-04-03 05:26:00,22.8,16.0,30.44,West,273,0.0,0.0,74,0.00,,,0.00,weatherlink.com 1.10,2013-04-03 09:26:00,
2013-04-03 05:41:00,22.5,16.0,30.44,West,273,0.0,0.0,75,0.00,,,0.00,weatherlink.com 1.10,2013-04-03 09:41:00,
2013-04-03 06:11:00,22.0,16.0,30.45,West,276,0.0,0.0,76,0.00,,,0.00,weatherlink.com 1.10,2013-04-03 10:11:00,
2013-04-03 06:26:00,21.8,16.0,30.46,West,276,0.0,0.0,77,0.00,,,0.00,weatherlink.com 1.10,2013-04-03 10:26:00,
2013-04-03 06:41:00,21.3,15.0,30.46,West,275,0.0,0.0,78,0.00,,,0.00,weatherlink.com 1.10,2013-04-03 10:41:00,
2013-04-03 06:56:00,20.7,15.0,30.47,West,276,0.0,0.0,79,0.00,,,0.00,weatherlink.com 1.10,2013-04-03 10:56:00,
2013-04-03 07:11:00,20.3,15.0,30.47,West,276,0.0,0.0,81,0.00,,,0.00,weatherlink.com 1.10,2013-04-03 11:11:00,
2013-04-03 07:26:00,20.0,15.0,30.47,West,276,0.0,0.0,82,0.00,,,0.00,weatherlink.com 1.10,2013-04-03 11:26:00,
2013-04-03 07:41:00,20.2,16.0,30.48,West,276,0.0,0.0,84,0.00,,,0.00,weatherlink.com 1.10,2013-04-03 11:41:00,
2013-04-03 07:56:00,21.6,17.0,30.48,West,274,0.0,1.0,81,0.00,,,0.00,weatherlink.com 1.10,2013-04-03 11:56:00,
2013-04-03 08:11:00,22.8,17.0,30.50,West,263,0.0,0.0,78,0.00,,,0.00,weatherlink.com 1.10,2013-04-03 12:11:00,
2013-04-03 08:26:00,23.4,18.0,30.50,West,262,0.0,1.0,78,0.00,,,0.00,weatherlink.com 1.10,2013-04-03 12:26:00,
2013-04-03 08:41:00,24.7,18.0,30.50,West,259,0.0,1.0,76,0.00,,,0.00,weatherlink.com 1.10,2013-04-03 12:41:00,
2013-04-03 08:56:00,26.1,18.0,30.50,WSW,257,0.0,1.0,72,0.00,,,0.00,weatherlink.com 1.10,2013-04-03 12:56:00,
2013-04-03 09:11:00,27.8,20.0,30.50,NNE,12,0.0,2.0,71,0.00,,,0.00,weatherlink.com 1.10,2013-04-03 13:11:00,
2013-04-03 09:41:00,32.8,19.0,30.51,North,356,0.0,1.0,57,0.00,,,0.00,weatherlink.com 1.10,2013-04-03 13:41:00,
2013-04-03 09:56:00,34.3,18.0,30.52,North,360,0.0,3.0,51,0.00,,,0.00,weatherlink.com 1.10,2013-04-03 13:56:00,
2013-04-03 10:12:00,35.2,17.0,30.52,North,360,0.0,5.0,47,0.00,,,0.00,weatherlink.com 1.10,2013-04-03 14:12:00,
2013-04-03 10:27:00,37.7,17.0,30.53,NNE,20,1.0,1.0,43,0.00,,,0.00,weatherlink.com 1.10,2013-04-03 14:27:00,
2013-04-03 10:42:00,38.7,17.0,30.53,NNE,21,0.0,3.0,41,0.00,,,0.00,weatherlink.com 1.10,2013-04-03 14:42:00,
2013-04-03 10:57:00,39.7,15.0,30.54,North,1,1.0,6.0,36,0.00,,,0.00,weatherlink.com 1.10,2013-04-03 14:57:00,
2013-04-03 11:12:00,40.2,14.0,30.54,SW,219,0.0,3.0,35,0.00,,,0.00,weatherlink.com 1.10,2013-04-03 15:12:00,
2013-04-03 11:27:00,42.7,15.0,30.54,WNW,294,2.0,3.0,33,0.00,,,0.00,weatherlink.com 1.10,2013-04-03 15:27:00,
2013-04-03 11:42:00,42.7,15.0,30.54,North,4,2.0,3.0,32,0.00,,,0.00,weatherlink.com 1.10,2013-04-03 15:42:00,
2013-04-03 11:57:00,44.0,15.0,30.54,NNW,345,0.0,2.0,31,0.00,,,0.00,weatherlink.com 1.10,2013-04-03 15:57:00,
2013-04-03 12:12:00,45.6,18.0,30.54,WNW,295,1.0,2.0,33,0.00,,,0.00,weatherlink.com 1.10,2013-04-03 16:12:00,
2013-04-03 12:27:00,45.6,16.0,30.54,North,355,2.0,3.0,31,0.00,,,0.00,weatherlink.com 1.10,2013-04-03 16:27:00,
2013-04-03 12:42:00,46.4,16.0,30.53,North,349,0.0,2.0,30,0.00,,,0.00,weatherlink.com 1.10,2013-04-03 16:42:00,
2013-04-03 12:57:00,45.5,14.0,30.52,WSW,243,1.0,4.0,28,0.00,,,0.00,weatherlink.com 1.10,2013-04-03 16:57:00,
2013-04-03 13:12:00,46.8,14.0,30.52,West,264,0.0,3.0,27,0.00,,,0.00,weatherlink.com 1.10,2013-04-03 17:12:00,
2013-04-03 13:27:00,46.8,12.0,30.52,North,4,0.0,3.0,24,0.00,,,0.00,weatherlink.com 1.10,2013-04-03 17:27:00,
2013-04-03 13:42:00,46.7,11.0,30.53,NE,37,0.0,2.0,23,0.00,,,0.00,weatherlink.com 1.10,2013-04-03 17:42:00,
2013-04-03 13:57:00,47.9,11.0,30.53,East,84,0.0,2.0,22,0.00,,,0.00,weatherlink.com 1.10,2013-04-03 17:57:00,
2013-04-03 14:12:00,48.9,12.0,30.53,WSW,248,1.0,3.0,23,0.00,,,0.00,weatherlink.com 1.10,2013-04-03 18:12:00,
2013-04-03 14:27:00,48.1,12.0,30.53,SE,141,0.0,3.0,23,0.00,,,0.00,weatherlink.com 1.10,2013-04-03 18:27:00,
2013-04-03 14:42:00,48.5,13.0,30.52,WSW,248,0.0,2.0,24,0.00,,,0.00,weatherlink.com 1.10,2013-04-03 18:42:00,
2013-04-03 14:57:00,49.5,11.0,30.51,West,266,0.0,2.0,21,0.00,,,0.00,weatherlink.com 1.10,2013-04-03 18:57:00,
2013-04-03 15:12:00,49.1,13.0,30.50,South,183,1.0,5.0,23,0.00,,,0.00,weatherlink.com 1.10,2013-04-03 19:12:00,
2013-04-03 15:27:00,47.9,11.0,30.49,SW,221,2.0,3.0,22,0.00,,,0.00,weatherlink.com 1.10,2013-04-03 19:27:00,
2013-04-03 15:42:00,48.0,13.0,30.48,WSW,245,0.0,4.0,24,0.00,,,0.00,weatherlink.com 1.10,2013-04-03 19:42:00,
2013-04-03 15:57:00,48.8,13.0,30.47,WSW,249,1.0,2.0,24,0.00,,,0.00,weatherlink.com 1.10,2013-04-03 19:57:00,
2013-04-03 16:12:00,49.3,14.0,30.47,NNW,343,0.0,2.0,24,0.00,,,0.00,weatherlink.com 1.10,2013-04-03 20:12:00,
2013-04-03 16:27:00,49.6,11.0,30.47,North,359,0.0,3.0,21,0.00,,,0.00,weatherlink.com 1.10,2013-04-03 20:27:00,
2013-04-03 16:42:00,50.6,12.0,30.46,NNE,33,0.0,2.0,21,0.00,,,0.00,weatherlink.com 1.10,2013-04-03 20:42:00,
2013-04-03 16:57:00,50.8,12.0,30.46,NNW,348,0.0,2.0,21,0.00,,,0.00,weatherlink.com 1.10,2013-04-03 20:57:00,
2013-04-03 17:12:00,51.3,12.0,30.46,NNW,343,0.0,3.0,21,0.00,,,0.00,weatherlink.com 1.10,2013-04-03 21:12:00,
2013-04-03 17:27:00,50.6,12.0,30.45,WNW,286,0.0,1.0,21,0.00,,,0.00,weatherlink.com 1.10,2013-04-03 21:27:00,
2013-04-03 17:42:00,49.4,16.0,30.45,SW,226,0.0,2.0,26,0.00,,,0.00,weatherlink.com 1.10,2013-04-03 21:42:00,
2013-04-03 17:57:00,47.2,16.0,30.45,West,262,1.0,4.0,29,0.00,,,0.00,weatherlink.com 1.10,2013-04-03 21:57:00,
2013-04-03 18:12:00,46.9,17.0,30.45,NNW,346,1.0,3.0,30,0.00,,,0.00,weatherlink.com 1.10,2013-04-03 22:12:00,
2013-04-03 18:27:00,47.2,19.0,30.45,WSW,253,0.0,1.0,32,0.00,,,0.00,weatherlink.com 1.10,2013-04-03 22:27:00,
2013-04-03 18:43:00,47.0,18.0,30.45,West,259,0.0,2.0,31,0.00,,,0.00,weatherlink.com 1.10,2013-04-03 22:43:00,
2013-04-03 18:58:00,46.5,18.0,30.45,WSW,248,1.0,2.0,32,0.00,,,0.00,weatherlink.com 1.10,2013-04-03 22:58:00,
2013-04-03 19:13:00,44.4,17.0,30.45,NNE,32,0.0,1.0,34,0.00,,,0.00,weatherlink.com 1.10,2013-04-03 23:13:00,
2013-04-03 19:28:00,42.0,18.0,30.45,NE,46,0.0,2.0,38,0.00,,,0.00,weatherlink.com 1.10,2013-04-03 23:28:00,
2013-04-03 19:43:00,40.9,19.0,30.45,NNE,23,0.0,1.0,41,0.00,,,0.00,weatherlink.com 1.10,2013-04-03 23:43:00,
2013-04-03 19:58:00,39.6,19.0,30.45,NNE,15,0.0,1.0,43,0.00,,,0.00,weatherlink.com 1.10,2013-04-03 23:58:00,
2013-04-03 20:13:00,38.3,19.0,30.45,North,11,0.0,1.0,45,0.00,,,0.00,weatherlink.com 1.10,2013-04-04 00:13:00,
2013-04-03 20:28:00,37.0,19.0,30.46,WSW,252,0.0,1.0,48,0.00,,,0.00,weatherlink.com 1.10,2013-04-04 00:28:00,
2013-04-03 20:43:00,35.9,19.0,30.45,NNE,15,0.0,1.0,50,0.00,,,0.00,weatherlink.com 1.10,2013-04-04 00:43:00,
2013-04-03 20:58:00,35.1,19.0,30.45,SSW,204,0.0,1.0,53,0.00,,,0.00,weatherlink.com 1.10,2013-04-04 00:58:00,
2013-04-03 21:13:00,34.2,19.0,30.46,SSW,204,0.0,1.0,55,0.00,,,0.00,weatherlink.com 1.10,2013-04-04 01:13:00,
2013-04-03 21:28:00,33.3,19.0,30.46,SSW,205,0.0,0.0,56,0.00,,,0.00,weatherlink.com 1.10,2013-04-04 01:28:00,
2013-04-03 21:43:00,32.5,19.0,30.46,SSW,205,0.0,0.0,58,0.00,,,0.00,weatherlink.com 1.10,2013-04-04 01:43:00,
2013-04-03 21:58:00,31.8,19.0,30.46,SSW,205,0.0,0.0,59,0.00,,,0.00,weatherlink.com 1.10,2013-04-04 01:58:00,
2013-04-03 22:13:00,31.2,19.0,30.46,SSW,204,0.0,0.0,60,0.00,,,0.00,weatherlink.com 1.10,2013-04-04 02:13:00,
2013-04-03 22:28:00,30.4,19.0,30.46,SSW,205,0.0,0.0,62,0.00,,,0.00,weatherlink.com 1.10,2013-04-04 02:28:00,
2013-04-03 22:43:00,29.8,19.0,30.46,SSW,204,0.0,0.0,64,0.00,,,0.00,weatherlink.com 1.10,2013-04-04 02:43:00,
2013-04-03 22:58:00,29.2,19.0,30.45,SSW,204,0.0,0.0,65,0.00,,,0.00,weatherlink.com 1.10,2013-04-04 02:58:00,
2013-04-03 23:13:00,28.8,19.0,30.45,SSW,205,0.0,0.0,66,0.00,,,0.00,weatherlink.com 1.10,2013-04-04 03:13:00,
2013-04-03 23:28:00,28.4,19.0,30.44,SSW,204,0.0,0.0,67,0.00,,,0.00,weatherlink.com 1.10,2013-04-04 03:28:00,
2013-04-03 23:43:00,27.8,18.0,30.44,SSW,204,0.0,0.0,68,0.00,,,0.00,weatherlink.com 1.10,2013-04-04 03:43:00,
2013-04-03 23:58:00,27.2,19.0,30.45,SSW,204,0.0,0.0,70,0.00,,,0.00,weatherlink.com 1.10,2013-04-04 03:58:00,